Time;durP1;ratioP1;P1;durP2;ratioP2;P2;SDS_P1;SDS_P2;PMS_P1;PMS_P2;Temp;Humidity;BMP_temperature;BMP_pressure;BME280_temperature;BME280_humidity;BME280_pressure;Samples;Min_cycle;Max_cycle;Signal;HPM_P1;HPM_P2
2022/01/11 00:00:21;;;;;;;118.53;43.50;;;;;;;;;;4992973;28;20045;-70
2022/01/11 00:02:47;;;;;;;105.00;40.63;;;;;;;;;;4992825;28;20049;-71
2022/01/11 00:05:22;;;;;;;124.97;43.25;;;;;;;;;;4992997;28;20658;-71
2022/01/11 00:07:48;;;;;;;104.03;40.03;;;;;;;;;;4990102;28;20076;-70
2022/01/11 00:10:22;;;;;;;97.72;37.63;;;;;;;;;;4985248;28;20069;-70
2022/01/11 00:12:48;;;;;;;96.55;37.40;;;;;;;;;;4990899;28;20038;-71
2022/01/11 00:15:13;;;;;;;94.93;36.72;;;;;;;;;;5002956;28;20589;-71
2022/01/11 00:17:39;;;;;;;93.88;37.20;;;;;;;;;;5008147;28;20048;-70
2022/01/11 00:20:06;;;;;;;89.15;35.40;;;;;;;;;;4998059;28;20109;-71
2022/01/11 00:22:36;;;;;;;82.22;37.67;;;;;;;;;;4986329;28;20038;-70
2022/01/11 00:25:02;;;;;;;85.38;37.25;;;;;;;;;;5005908;28;20160;-71
2022/01/11 00:27:28;;;;;;;77.82;36.22;;;;;;;;;;4985930;28;20038;-71
2022/01/11 00:29:56;;;;;;;86.53;35.67;;;;;;;;;;4990856;28;20055;-71
2022/01/11 00:32:38;;;;;;;69.43;32.72;;;;;;;;;;4989792;28;20121;-70
2022/01/11 00:35:06;;;;;;;70.10;34.13;;;;;;;;;;4995905;28;20041;-70
2022/01/11 00:37:32;;;;;;;79.05;33.83;;;;;;;;;;4992222;28;20604;-70
2022/01/11 00:39:59;;;;;;;66.00;32.20;;;;;;;;;;4978364;28;20693;-70
2022/01/11 00:42:24;;;;;;;58.30;31.42;;;;;;;;;;4972097;28;20069;-70
2022/01/11 00:44:50;;;;;;;73.30;33.63;;;;;;;;;;4973111;28;20108;-70
2022/01/11 00:47:16;;;;;;;69.57;34.03;;;;;;;;;;4990813;28;20037;-70
2022/01/11 00:49:41;;;;;;;76.60;35.40;;;;;;;;;;4997090;28;20187;-70
2022/01/11 00:52:08;;;;;;;61.78;33.40;;;;;;;;;;4988968;28;20397;-70
2022/01/11 00:54:34;;;;;;;50.67;31.08;;;;;;;;;;4990641;28;20109;-71
2022/01/11 00:57:00;;;;;;;59.80;32.53;;;;;;;;;;5000187;28;20453;-72
2022/01/11 00:59:26;;;;;;;50.95;30.20;;;;;;;;;;5006420;28;20439;-70
2022/01/11 01:01:51;;;;;;;48.75;29.15;;;;;;;;;;4982412;28;20053;-70
2022/01/11 01:04:17;;;;;;;53.33;29.10;;;;;;;;;;4978500;28;20076;-71
2022/01/11 01:06:45;;;;;;;58.42;30.27;;;;;;;;;;5004296;28;20050;-70
2022/01/11 01:09:12;;;;;;;56.45;31.48;;;;;;;;;;5004861;28;20038;-71
2022/01/11 01:11:44;;;;;;;62.63;31.08;;;;;;;;;;4977412;28;20390;-70
2022/01/11 01:14:11;;;;;;;55.10;29.40;;;;;;;;;;5012051;23;20046;-69
2022/01/11 01:16:37;;;;;;;69.68;32.50;;;;;;;;;;5030459;28;20479;-70
2022/01/11 01:19:21;;;;;;;54.97;30.38;;;;;;;;;;5052406;28;20292;-69
2022/01/11 01:21:49;;;;;;;66.00;34.10;;;;;;;;;;5040904;28;20627;-69
2022/01/11 01:24:15;;;;;;;76.90;33.20;;;;;;;;;;5026079;28;20106;-69
2022/01/11 01:26:41;;;;;;;75.88;33.03;;;;;;;;;;5052881;28;20037;-69
2022/01/11 01:29:07;;;;;;;76.95;34.50;;;;;;;;;;5042651;28;20043;-68
2022/01/11 01:31:32;;;;;;;73.32;32.95;;;;;;;;;;5053256;28;20072;-69
2022/01/11 01:34:03;;;;;;;68.97;30.50;;;;;;;;;;5051331;28;20041;-69
2022/01/11 01:36:29;;;;;;;65.47;31.58;;;;;;;;;;5032892;28;20036;-69
2022/01/11 01:38:55;;;;;;;57.97;30.20;;;;;;;;;;5030286;28;20037;-69
2022/01/11 01:41:22;;;;;;;54.45;31.85;;;;;;;;;;5033812;28;20036;-69
2022/01/11 01:43:51;;;;;;;59.45;29.63;;;;;;;;;;5038947;28;20113;-69
2022/01/11 01:46:17;;;;;;;64.57;29.90;;;;;;;;;;5061346;28;20044;-69
2022/01/11 01:48:44;;;;;;;65.25;31.75;;;;;;;;;;5057990;28;20033;-69
2022/01/11 01:51:11;;;;;;;67.97;31.92;;;;;;;;;;5049629;28;20033;-69
2022/01/11 01:53:39;;;;;;;68.00;31.00;;;;;;;;;;5047593;28;20032;-69
2022/01/11 01:56:06;;;;;;;62.00;29.70;;;;;;;;;;5046115;28;20048;-68
2022/01/11 01:58:32;;;;;;;52.83;28.88;;;;;;;;;;5011667;28;20119;-68
2022/01/11 02:01:03;;;;;;;61.63;31.00;;;;;;;;;;5029356;28;20036;-69
2022/01/11 02:03:31;;;;;;;55.50;30.88;;;;;;;;;;5018343;28;20028;-68
2022/01/11 02:05:58;;;;;;;60.88;30.92;;;;;;;;;;5041507;28;20547;-70
2022/01/11 02:08:25;;;;;;;60.08;32.17;;;;;;;;;;5056341;28;20560;-69
2022/01/11 02:10:52;;;;;;;75.13;33.53;;;;;;;;;;5048331;28;20153;-69
2022/01/11 02:13:18;;;;;;;86.05;37.70;;;;;;;;;;5053558;28;20114;-69
2022/01/11 02:15:45;;;;;;;91.15;37.65;;;;;;;;;;5050341;28;20036;-68
2022/01/11 02:18:14;;;;;;;78.28;33.38;;;;;;;;;;5055368;28;20047;-68
2022/01/11 02:20:46;;;;;;;74.03;32.83;;;;;;;;;;5029764;28;20112;-70
2022/01/11 02:23:18;;;;;;;75.70;33.08;;;;;;;;;;5028105;28;20391;-70
2022/01/11 02:25:45;;;;;;;82.30;33.78;;;;;;;;;;5038879;28;20473;-70
2022/01/11 02:28:15;;;;;;;66.28;33.28;;;;;;;;;;5032834;28;20445;-69
2022/01/11 02:30:42;;;;;;;77.13;34.63;;;;;;;;;;5023712;28;20033;-69
2022/01/11 02:33:21;;;;;;;94.82;34.45;;;;;;;;;;5053485;28;20029;-70
2022/01/11 02:35:50;;;;;;;65.32;32.17;;;;;;;;;;5038457;28;20115;-71
2022/01/11 02:38:18;;;;;;;94.57;34.25;;;;;;;;;;5026066;28;20095;-70
2022/01/11 02:40:44;;;;;;;89.18;36.10;;;;;;;;;;5030278;28;20132;-69
2022/01/11 02:43:12;;;;;;;87.03;34.30;;;;;;;;;;5052283;28;20423;-69
2022/01/11 02:45:38;;;;;;;72.40;29.88;;;;;;;;;;5033075;28;20770;-70
2022/01/11 02:48:04;;;;;;;75.55;33.03;;;;;;;;;;5049056;28;20705;-68
2022/01/11 02:50:30;;;;;;;79.00;33.75;;;;;;;;;;5031890;28;20048;-70
2022/01/11 02:52:57;;;;;;;83.45;33.05;;;;;;;;;;5033353;28;20033;-70
2022/01/11 02:55:24;;;;;;;84.93;36.00;;;;;;;;;;5026580;28;20095;-68
2022/01/11 02:57:49;;;;;;;97.05;36.33;;;;;;;;;;5040833;28;20417;-69
2022/01/11 03:00:22;;;;;;;100.85;34.72;;;;;;;;;;5042719;28;20143;-69
2022/01/11 03:02:49;;;;;;;106.47;37.92;;;;;;;;;;5045002;28;20032;-70
2022/01/11 03:05:20;;;;;;;107.38;37.97;;;;;;;;;;5049774;28;20488;-68
2022/01/11 03:07:47;;;;;;;137.20;43.03;;;;;;;;;;5031413;28;20079;-70
2022/01/11 03:10:32;;;;;;;107.57;37.92;;;;;;;;;;5051969;28;20048;-69
2022/01/11 03:13:00;;;;;;;105.20;37.90;;;;;;;;;;5040229;28;20082;-69
2022/01/11 03:15:26;;;;;;;114.53;40.63;;;;;;;;;;5034562;28;20049;-70
2022/01/11 03:17:58;;;;;;;90.57;35.05;;;;;;;;;;5024697;28;20037;-69
2022/01/11 03:20:24;;;;;;;96.90;36.28;;;;;;;;;;5047318;28;20037;-70
2022/01/11 03:22:50;;;;;;;99.47;35.08;;;;;;;;;;5029973;28;20039;-70
2022/01/11 03:25:17;;;;;;;95.75;37.63;;;;;;;;;;5045135;28;20028;-70
2022/01/11 03:27:44;;;;;;;102.80;38.67;;;;;;;;;;5050905;28;20409;-70
2022/01/11 03:30:13;;;;;;;109.40;37.55;;;;;;;;;;5041046;28;20080;-70
2022/01/11 03:32:41;;;;;;;111.22;40.13;;;;;;;;;;5030701;28;20040;-70
2022/01/11 03:35:16;;;;;;;126.95;42.03;;;;;;;;;;5032871;28;20033;-69
2022/01/11 03:37:44;;;;;;;127.03;40.70;;;;;;;;;;5032551;28;20079;-69
2022/01/11 03:40:14;;;;;;;123.00;40.50;;;;;;;;;;5043128;28;20044;-69
2022/01/11 03:42:40;;;;;;;135.40;43.63;;;;;;;;;;5047850;28;20090;-69
2022/01/11 03:45:08;;;;;;;129.52;42.17;;;;;;;;;;5039980;28;20041;-70
2022/01/11 03:47:35;;;;;;;132.85;43.45;;;;;;;;;;5036633;28;20068;-68
2022/01/11 03:50:02;;;;;;;133.80;40.35;;;;;;;;;;5034543;28;20028;-69
2022/01/11 03:52:28;;;;;;;142.55;47.55;;;;;;;;;;5030522;28;20024;-69
2022/01/11 03:57:31;;;;;;;151.60;45.67;;;;;;;;;;5037285;28;20040;-69
2022/01/11 03:59:59;;;;;;;159.60;51.65;;;;;;;;;;5051118;28;20133;-70
2022/01/11 04:02:26;;;;;;;169.82;53.90;;;;;;;;;;5033944;28;20024;-69
2022/01/11 04:04:54;;;;;;;159.25;53.40;;;;;;;;;;5027995;28;20053;-69
2022/01/11 04:07:22;;;;;;;187.93;58.17;;;;;;;;;;5048329;28;20032;-68
2022/01/11 04:09:49;;;;;;;197.80;56.88;;;;;;;;;;5062414;28;20115;-71
2022/01/11 04:12:15;;;;;;;200.25;56.65;;;;;;;;;;5059829;28;20029;-70
2022/01/11 04:14:41;;;;;;;192.25;52.88;;;;;;;;;;5060239;28;20102;-70
2022/01/11 04:17:07;;;;;;;185.07;55.10;;;;;;;;;;5029631;28;20033;-69
2022/01/11 04:19:33;;;;;;;205.10;56.83;;;;;;;;;;5049769;28;20041;-68
2022/01/11 04:21:59;;;;;;;195.13;54.10;;;;;;;;;;5038121;28;20068;-69
2022/01/11 04:24:25;;;;;;;177.68;48.90;;;;;;;;;;5028250;28;20499;-69
2022/01/11 04:26:51;;;;;;;175.18;51.10;;;;;;;;;;5029887;28;20037;-69
2022/01/11 04:29:17;;;;;;;172.07;49.22;;;;;;;;;;5050593;28;20404;-69
2022/01/11 04:31:43;;;;;;;189.88;47.95;;;;;;;;;;5024977;28;20047;-70
2022/01/11 04:34:15;;;;;;;143.13;44.75;;;;;;;;;;5060332;28;20054;-69
2022/01/11 04:36:42;;;;;;;138.15;46.55;;;;;;;;;;5045188;28;20039;-69
2022/01/11 04:39:11;;;;;;;151.85;45.08;;;;;;;;;;5053919;28;20032;-69
2022/01/11 04:41:37;;;;;;;;;;;;;;;;;;5039417;28;20042;-70
2022/01/11 04:44:04;;;;;;;123.85;40.47;;;;;;;;;;5061657;28;19920;-70
2022/01/11 04:46:30;;;;;;;153.10;43.00;;;;;;;;;;5029360;28;20120;-70
2022/01/11 04:48:59;;;;;;;143.00;42.58;;;;;;;;;;5052318;28;20029;-69
2022/01/11 04:51:29;;;;;;;154.55;45.75;;;;;;;;;;5021337;28;20037;-69
2022/01/11 04:53:54;;;;;;;122.07;42.47;;;;;;;;;;5029227;28;20029;-69
2022/01/11 04:56:22;;;;;;;122.30;40.45;;;;;;;;;;5023648;28;20561;-70
2022/01/11 04:58:48;;;;;;;135.32;41.28;;;;;;;;;;5032379;28;20068;-69
2022/01/11 05:01:14;;;;;;;115.07;39.03;;;;;;;;;;5032941;28;20041;-69
2022/01/11 05:03:41;;;;;;;106.72;36.88;;;;;;;;;;5034482;28;20041;-70
2022/01/11 05:06:07;;;;;;;107.28;35.17;;;;;;;;;;5049439;28;20079;-69
2022/01/11 05:08:35;;;;;;;107.75;35.60;;;;;;;;;;5030486;28;20491;-69
2022/01/11 05:11:03;;;;;;;95.88;34.40;;;;;;;;;;5037152;28;20032;-70
2022/01/11 05:13:31;;;;;;;108.90;41.10;;;;;;;;;;5044948;28;20080;-69
2022/01/11 05:15:59;;;;;;;111.03;36.45;;;;;;;;;;5028700;28;20136;-70
2022/01/11 05:18:26;;;;;;;88.88;36.00;;;;;;;;;;5047341;28;20033;-69
2022/01/11 05:20:51;;;;;;;105.53;40.67;;;;;;;;;;5026689;28;20507;-70
2022/01/11 05:23:17;;;;;;;85.30;33.75;;;;;;;;;;5014118;28;20024;-69
2022/01/11 05:25:43;;;;;;;74.22;33.28;;;;;;;;;;5051405;28;20103;-69
2022/01/11 05:28:09;;;;;;;78.97;33.17;;;;;;;;;;5044868;28;20044;-69
2022/01/11 05:30:35;;;;;;;80.82;33.00;;;;;;;;;;5057726;28;20033;-69
2022/01/11 05:33:02;;;;;;;75.32;33.25;;;;;;;;;;5047808;28;20648;-69
2022/01/11 05:35:28;;;;;;;77.30;32.42;;;;;;;;;;5041366;28;20522;-70
2022/01/11 05:37:54;;;;;;;70.72;33.25;;;;;;;;;;5028536;28;20033;-69
2022/01/11 05:40:21;;;;;;;70.55;33.83;;;;;;;;;;5057879;28;20123;-67
2022/01/11 05:42:50;;;;;;;68.13;33.10;;;;;;;;;;5033173;28;20079;-70
2022/01/11 05:45:18;;;;;;;61.90;31.90;;;;;;;;;;5027108;28;20309;-70
2022/01/11 05:47:48;;;;;;;68.30;31.08;;;;;;;;;;5044457;28;20045;-70
2022/01/11 05:50:14;;;;;;;83.05;36.65;;;;;;;;;;5033478;28;20041;-69
2022/01/11 05:52:42;;;;;;;85.85;37.05;;;;;;;;;;5046614;28;20029;-67
2022/01/11 05:55:09;;;;;;;94.97;38.03;;;;;;;;;;5021180;28;20431;-67
2022/01/11 05:57:35;;;;;;;114.65;43.80;;;;;;;;;;5030542;28;20043;-70
2022/01/11 06:00:04;;;;;;;119.55;44.15;;;;;;;;;;5030731;28;20115;-68
2022/01/11 06:02:41;;;;;;;139.13;47.28;;;;;;;;;;5053260;28;20134;-68
2022/01/11 06:05:09;;;;;;;118.70;41.90;;;;;;;;;;5024957;28;20128;-69
2022/01/11 06:07:37;;;;;;;116.55;40.80;;;;;;;;;;5037303;28;20038;-70
2022/01/11 06:10:04;;;;;;;116.38;41.45;;;;;;;;;;5047709;28;20090;-69
2022/01/11 06:12:32;;;;;;;135.18;43.03;;;;;;;;;;5027824;28;20026;-69
2022/01/11 06:14:57;;;;;;;106.18;39.30;;;;;;;;;;5048238;28;20043;-70
2022/01/11 06:17:23;;;;;;;102.60;39.85;;;;;;;;;;5033859;28;20075;-69
2022/01/11 06:19:49;;;;;;;101.32;36.60;;;;;;;;;;5050179;28;20064;-69
2022/01/11 06:22:24;;;;;;;108.60;39.85;;;;;;;;;;5014839;28;20400;-69
2022/01/11 06:24:51;;;;;;;93.32;38.40;;;;;;;;;;5028363;28;20124;-68
2022/01/11 06:27:18;;;;;;;107.90;40.97;;;;;;;;;;5052311;28;20399;-69
2022/01/11 06:29:43;;;;;;;90.35;36.38;;;;;;;;;;5051984;28;20028;-69
2022/01/11 06:32:09;;;;;;;85.95;37.55;;;;;;;;;;5044972;28;20033;-69
2022/01/11 06:34:35;;;;;;;89.70;36.67;;;;;;;;;;5032259;28;20033;-69
2022/01/11 06:37:01;;;;;;;88.22;35.45;;;;;;;;;;5052015;28;20046;-69
2022/01/11 06:39:36;;;;;;;79.25;36.42;;;;;;;;;;5031166;28;20041;-69
2022/01/11 06:42:03;;;;;;;86.10;37.05;;;;;;;;;;5041000;28;20067;-69
2022/01/11 06:44:29;;;;;;;72.68;33.97;;;;;;;;;;5046716;28;20387;-68
2022/01/11 06:46:55;;;;;;;72.95;34.28;;;;;;;;;;5057328;28;20040;-70
2022/01/11 06:49:21;;;;;;;67.15;32.15;;;;;;;;;;5046292;28;20040;-70
2022/01/11 06:51:48;;;;;;;70.32;33.40;;;;;;;;;;5029689;28;20135;-69
2022/01/11 06:54:15;;;;;;;64.50;30.60;;;;;;;;;;5027141;28;20033;-69
2022/01/11 06:56:43;;;;;;;72.55;34.40;;;;;;;;;;5059675;28;20506;-70
2022/01/11 06:59:09;;;;;;;53.83;30.08;;;;;;;;;;5024400;28;20040;-68
2022/01/11 07:01:36;;;;;;;64.57;30.48;;;;;;;;;;5033209;28;20033;-68
2022/01/11 07:04:06;;;;;;;52.00;27.65;;;;;;;;;;5035306;28;20428;-67
2022/01/11 07:06:41;;;;;;;58.08;29.00;;;;;;;;;;5027402;28;20059;-68
2022/01/11 07:09:07;;;;;;;51.17;27.58;;;;;;;;;;5026336;28;20486;-68
2022/01/11 07:11:38;;;;;;;53.45;28.05;;;;;;;;;;5046449;28;20482;-68
2022/01/11 07:14:04;;;;;;;55.00;28.98;;;;;;;;;;5032452;28;20043;-66
2022/01/11 07:16:31;;;;;;;53.10;28.17;;;;;;;;;;5048046;22;20049;-89
2022/01/11 07:18:58;;;;;;;62.60;29.98;;;;;;;;;;5011853;28;20048;-90
2022/01/11 07:21:24;;;;;;;54.45;28.45;;;;;;;;;;5029754;28;20439;-89
2022/01/11 07:23:49;;;;;;;53.78;28.52;;;;;;;;;;5000211;28;20037;-89
2022/01/11 07:26:15;;;;;;;45.28;26.92;;;;;;;;;;5009882;28;20045;-91
2022/01/11 07:28:41;;;;;;;57.50;27.55;;;;;;;;;;5013241;22;20020;-68
2022/01/11 07:31:12;;;;;;;45.75;26.70;;;;;;;;;;5035322;28;20072;-68
2022/01/11 07:33:44;;;;;;;50.22;28.35;;;;;;;;;;5037255;28;20030;-68
2022/01/11 07:36:11;;;;;;;41.65;26.02;;;;;;;;;;5043629;28;20036;-68
2022/01/11 07:38:38;;;;;;;44.85;27.02;;;;;;;;;;5024961;28;20060;-68
2022/01/11 07:41:09;;;;;;;49.53;28.55;;;;;;;;;;5018295;28;20041;-69
2022/01/11 07:43:47;;;;;;;44.83;26.17;;;;;;;;;;5017618;28;20044;-68
2022/01/11 07:46:19;;;;;;;46.53;28.05;;;;;;;;;;5018890;28;20033;-68
2022/01/11 07:48:48;;;;;;;46.72;25.90;;;;;;;;;;5012614;28;20041;-68
2022/01/11 07:51:15;;;;;;;52.13;30.83;;;;;;;;;;5036116;28;20068;-68
2022/01/11 07:53:41;;;;;;;59.85;30.80;;;;;;;;;;5020061;28;20695;-68
2022/01/11 07:56:13;;;;;;;51.95;29.45;;;;;;;;;;5003253;28;20076;-68
2022/01/11 07:58:39;;;;;;;54.25;28.95;;;;;;;;;;5033188;28;20069;-68
2022/01/11 08:01:07;;;;;;;49.00;27.05;;;;;;;;;;5031778;28;20057;-68
2022/01/11 08:03:37;;;;;;;50.53;28.60;;;;;;;;;;5017403;28;20037;-70
2022/01/11 08:06:16;;;;;;;46.75;27.65;;;;;;;;;;5016091;28;20041;-69
2022/01/11 08:08:45;;;;;;;;;;;;;;;;;;5015245;28;20288;-69
2022/01/11 08:11:11;;;;;;;40.13;25.55;;;;;;;;;;5010728;28;19913;-69
2022/01/11 08:13:39;;;;;;;41.85;25.88;;;;;;;;;;5013654;28;20091;-69
2022/01/11 08:16:05;;;;;;;44.67;26.52;;;;;;;;;;5020458;28;20068;-69
2022/01/11 08:18:32;;;;;;;49.95;27.50;;;;;;;;;;5005027;28;20311;-69
2022/01/11 08:20:57;;;;;;;52.55;29.60;;;;;;;;;;5005538;28;20496;-69
2022/01/11 08:23:24;;;;;;;42.90;26.02;;;;;;;;;;5018190;28;20083;-69
2022/01/11 08:25:51;;;;;;;48.65;28.92;;;;;;;;;;5018489;28;20407;-69
2022/01/11 08:28:17;;;;;;;47.28;27.15;;;;;;;;;;5019594;28;20041;-68
2022/01/11 08:30:52;;;;;;;47.85;27.65;;;;;;;;;;5010950;28;20091;-68
2022/01/11 08:33:18;;;;;;;47.50;26.90;;;;;;;;;;5019047;28;20634;-68
2022/01/11 08:35:44;;;;;;;51.40;27.55;;;;;;;;;;4998105;28;20049;-68
2022/01/11 08:38:13;;;;;;;43.28;28.52;;;;;;;;;;5018770;28;20043;-68
2022/01/11 08:40:39;;;;;;;43.47;28.10;;;;;;;;;;5014652;28;20040;-68
2022/01/11 08:43:06;;;;;;;47.22;28.75;;;;;;;;;;5017205;28;20073;-68
2022/01/11 08:45:37;;;;;;;48.92;29.45;;;;;;;;;;5012083;28;20037;-68
2022/01/11 08:48:06;;;;;;;47.28;29.38;;;;;;;;;;4997644;28;20504;-68
2022/01/11 08:50:38;;;;;;;50.85;31.55;;;;;;;;;;5015324;28;20076;-68
2022/01/11 08:53:03;;;;;;;59.45;33.10;;;;;;;;;;5029029;28;20118;-68
2022/01/11 08:55:29;;;;;;;60.33;33.60;;;;;;;;;;5022693;28;20047;-68
2022/01/11 08:57:55;;;;;;;54.88;33.72;;;;;;;;;;5011907;28;20170;-70
2022/01/11 09:00:22;;;;;;;64.80;36.75;;;;;;;;;;5013826;28;20048;-69
2022/01/11 09:02:54;;;;;;;59.80;34.95;;;;;;;;;;5013839;28;20038;-69
2022/01/11 09:05:23;;;;;;;67.75;34.20;;;;;;;;;;5016197;28;20539;-69
2022/01/11 09:07:50;;;;;;;59.10;33.05;;;;;;;;;;5012175;28;20044;-69
2022/01/11 09:10:17;;;;;;;57.25;32.22;;;;;;;;;;5030337;28;20033;-69
2022/01/11 09:12:45;;;;;;;49.20;30.90;;;;;;;;;;5035212;28;20124;-69
2022/01/11 09:15:13;;;;;;;48.53;30.92;;;;;;;;;;5018579;28;20053;-69
2022/01/11 09:17:41;;;;;;;50.80;32.45;;;;;;;;;;5013818;28;20048;-69
2022/01/11 09:20:10;;;;;;;52.05;31.30;;;;;;;;;;5017187;28;20037;-69
2022/01/11 09:22:37;;;;;;;50.05;29.92;;;;;;;;;;5015725;28;20026;-69
2022/01/11 09:25:05;;;;;;;42.13;26.52;;;;;;;;;;5008159;28;20048;-69
2022/01/11 09:27:38;;;;;;;37.45;26.65;;;;;;;;;;5013908;28;20599;-69
2022/01/11 09:30:08;;;;;;;42.63;25.77;;;;;;;;;;5011937;28;20037;-68
2022/01/11 09:32:37;;;;;;;38.72;25.63;;;;;;;;;;5010954;28;20040;-69
2022/01/11 09:35:06;;;;;;;40.63;24.80;;;;;;;;;;5009334;28;20097;-69
2022/01/11 09:37:33;;;;;;;35.47;24.23;;;;;;;;;;5011437;28;20439;-69
2022/01/11 09:39:59;;;;;;;37.22;24.17;;;;;;;;;;5002279;28;20037;-69
2022/01/11 09:42:27;;;;;;;34.65;24.33;;;;;;;;;;5015484;28;20036;-69
2022/01/11 09:44:55;;;;;;;32.22;21.52;;;;;;;;;;5028011;28;20496;-67
2022/01/11 09:47:21;;;;;;;31.92;22.05;;;;;;;;;;5010011;28;20116;-68
2022/01/11 09:49:49;;;;;;;35.88;23.30;;;;;;;;;;5027429;28;20084;-68
2022/01/11 09:52:16;;;;;;;33.58;23.83;;;;;;;;;;5011408;28;20029;-68
2022/01/11 09:54:47;;;;;;;33.33;22.95;;;;;;;;;;5016224;28;20029;-68
2022/01/11 09:57:15;;;;;;;29.20;21.73;;;;;;;;;;5005748;28;20112;-68
2022/01/11 09:59:42;;;;;;;32.88;21.60;;;;;;;;;;5014648;28;20040;-68
2022/01/11 10:02:42;;;;;;;28.90;20.90;;;;;;;;;;5032458;28;20037;-69
2022/01/11 10:05:28;;;;;;;25.73;18.70;;;;;;;;;;5034042;28;20120;-69
2022/01/11 10:07:55;;;;;;;28.17;19.38;;;;;;;;;;5011756;28;20045;-68
2022/01/11 10:10:23;;;;;;;24.35;19.92;;;;;;;;;;4997663;28;20159;-69
2022/01/11 10:12:55;;;;;;;28.40;19.92;;;;;;;;;;5010480;28;20044;-69
2022/01/11 10:15:27;;;;;;;28.67;20.83;;;;;;;;;;4993317;28;20045;-69
2022/01/11 10:17:53;;;;;;;30.77;21.02;;;;;;;;;;5010242;28;20037;-69
2022/01/11 10:20:25;;;;;;;24.35;19.13;;;;;;;;;;5016096;28;20282;-69
2022/01/11 10:23:16;;;;;;;30.67;21.63;;;;;;;;;;5031851;28;20089;-69
2022/01/11 10:25:49;;;;;;;27.33;20.67;;;;;;;;;;5014331;28;20087;-69
2022/01/11 10:28:16;;;;;;;26.25;20.55;;;;;;;;;;5014090;28;20089;-69
2022/01/11 10:30:47;;;;;;;23.33;18.15;;;;;;;;;;5027384;28;20037;-69
2022/01/11 10:33:15;;;;;;;24.80;19.50;;;;;;;;;;5016148;28;20037;-69
2022/01/11 10:35:45;;;;;;;22.83;20.10;;;;;;;;;;5014412;28;20040;-69
2022/01/11 10:38:31;;;;;;;27.15;19.63;;;;;;;;;;5027296;28;20198;-69
2022/01/11 10:41:05;;;;;;;23.45;18.38;;;;;;;;;;5010869;28;20041;-69
2022/01/11 10:43:42;;;;;;;24.55;18.40;;;;;;;;;;5014229;28;20048;-68
2022/01/11 10:46:08;;;;;;;22.35;19.60;;;;;;;;;;5027632;28;20034;-68
2022/01/11 10:48:39;;;;;;;24.83;18.75;;;;;;;;;;5012178;28;20373;-68
2022/01/11 10:51:14;;;;;;;20.48;18.38;;;;;;;;;;5013297;28;20108;-68
2022/01/11 10:53:43;;;;;;;20.77;18.73;;;;;;;;;;5012221;28;20075;-68
2022/01/11 10:56:11;;;;;;;21.48;18.90;;;;;;;;;;5013166;28;20411;-68
2022/01/11 10:59:02;;;;;;;20.30;18.27;;;;;;;;;;4996498;28;20409;-68
2022/01/11 11:01:31;;;;;;;20.10;18.13;;;;;;;;;;5026530;28;20032;-68
2022/01/11 11:03:57;;;;;;;21.17;18.98;;;;;;;;;;4996660;28;20045;-68
2022/01/11 11:06:25;;;;;;;18.98;17.08;;;;;;;;;;5019602;28;20391;-70
2022/01/11 11:08:51;;;;;;;20.83;18.35;;;;;;;;;;5014652;28;21496;-70
2022/01/11 11:11:23;;;;;;;16.20;14.88;;;;;;;;;;5017127;28;20033;-68
2022/01/11 11:14:11;;;;;;;16.57;14.90;;;;;;;;;;5040511;28;20491;-69
2022/01/11 11:16:44;;;;;;;13.93;12.82;;;;;;;;;;5015895;28;20697;-69
2022/01/11 11:19:11;;;;;;;14.43;13.32;;;;;;;;;;5018295;28;20061;-68
2022/01/11 11:21:43;;;;;;;13.25;12.25;;;;;;;;;;5031281;28;20037;-68
2022/01/11 11:24:12;;;;;;;14.48;13.27;;;;;;;;;;5037886;28;20045;-68
2022/01/11 11:26:38;;;;;;;13.80;12.73;;;;;;;;;;5015677;28;20488;-68
2022/01/11 11:29:05;;;;;;;13.30;12.38;;;;;;;;;;5038680;28;20037;-70
2022/01/11 11:31:34;;;;;;;14.30;12.90;;;;;;;;;;5032501;28;20029;-69
2022/01/11 11:34:01;;;;;;;15.38;13.88;;;;;;;;;;5031497;28;20025;-69
2022/01/11 11:36:28;;;;;;;15.05;13.63;;;;;;;;;;5039258;28;20027;-69
2022/01/11 11:39:11;;;;;;;14.27;13.18;;;;;;;;;;5038442;28;20033;-69
2022/01/11 11:41:43;;;;;;;15.95;14.38;;;;;;;;;;5031318;28;20037;-70
2022/01/11 11:44:21;;;;;;;14.70;13.50;;;;;;;;;;5041096;28;20056;-69
2022/01/11 11:46:46;;;;;;;14.38;13.18;;;;;;;;;;5039802;28;20039;-70
2022/01/11 11:49:14;;;;;;;12.88;11.88;;;;;;;;;;5037920;28;20112;-70
2022/01/11 11:51:42;;;;;;;14.13;13.13;;;;;;;;;;5029746;28;20087;-70
2022/01/11 11:54:13;;;;;;;15.02;13.73;;;;;;;;;;5033843;28;20038;-70
2022/01/11 11:56:42;;;;;;;14.60;13.32;;;;;;;;;;5035169;28;20040;-69
2022/01/11 11:59:09;;;;;;;13.20;12.30;;;;;;;;;;5030835;28;20096;-70
2022/01/11 12:01:42;;;;;;;13.27;12.25;;;;;;;;;;5009163;28;20029;-70
2022/01/11 12:04:25;;;;;;;13.45;12.45;;;;;;;;;;5028889;28;20029;-69
2022/01/11 12:06:52;;;;;;;13.60;12.50;;;;;;;;;;5015586;28;20846;-70
2022/01/11 12:09:20;;;;;;;14.02;12.90;;;;;;;;;;5031931;28;20037;-70
2022/01/11 12:11:51;;;;;;;12.60;11.80;;;;;;;;;;5038079;28;20045;-69
2022/01/11 12:14:36;;;;;;;12.77;11.75;;;;;;;;;;5032678;28;20040;-70
2022/01/11 12:17:17;;;;;;;13.25;12.30;;;;;;;;;;5026982;28;20120;-69
2022/01/11 12:19:47;;;;;;;12.10;11.30;;;;;;;;;;5027209;28;20036;-71
2022/01/11 12:22:21;;;;;;;13.10;12.20;;;;;;;;;;5029925;28;20044;-69
2022/01/11 12:24:49;;;;;;;13.50;12.43;;;;;;;;;;5031117;28;20395;-69
2022/01/11 12:27:18;;;;;;;13.70;12.80;;;;;;;;;;5031341;28;20038;-69
2022/01/11 12:29:56;;;;;;;15.00;13.85;;;;;;;;;;5027607;28;20041;-68
2022/01/11 12:32:23;;;;;;;15.80;14.45;;;;;;;;;;5029188;28;20087;-69
2022/01/11 12:34:59;;;;;;;13.65;12.75;;;;;;;;;;5032243;28;20040;-69
2022/01/11 12:37:43;;;;;;;13.35;12.35;;;;;;;;;;5009703;28;20037;-69
2022/01/11 12:40:23;;;;;;;13.70;12.57;;;;;;;;;;5010255;28;20037;-69
2022/01/11 12:42:52;;;;;;;13.80;12.70;;;;;;;;;;5030491;28;20084;-69
2022/01/11 12:45:58;;;;;;;15.05;13.77;;;;;;;;;;5028283;28;20060;-69
2022/01/11 12:48:42;;;;;;;15.05;13.75;;;;;;;;;;5026219;28;20084;-69
2022/01/11 12:51:38;;;;;;;13.57;12.65;;;;;;;;;;5026554;28;20029;-69
2022/01/11 12:54:15;;;;;;;13.98;13.05;;;;;;;;;;5025020;28;20037;-68
2022/01/11 12:56:41;;;;;;;13.88;12.77;;;;;;;;;;5038107;28;20125;-69
2022/01/11 12:59:07;;;;;;;14.27;13.07;;;;;;;;;;5033004;28;20040;-69
2022/01/11 13:01:33;;;;;;;14.68;13.48;;;;;;;;;;5030123;28;20037;-69
2022/01/11 13:04:00;;;;;;;13.80;12.75;;;;;;;;;;5032794;28;20056;-69
2022/01/11 13:06:32;;;;;;;13.52;12.32;;;;;;;;;;5029629;28;20032;-69
2022/01/11 13:09:01;;;;;;;14.13;13.02;;;;;;;;;;5023702;28;20037;-69
2022/01/11 13:11:27;;;;;;;14.40;13.20;;;;;;;;;;5030757;28;20817;-69
2022/01/11 13:17:05;;;;;;;14.90;13.70;;;;;;;;;;4969414;28;20606;-69
2022/01/11 13:19:33;;;;;;;14.10;13.02;;;;;;;;;;4966763;28;20544;-69
2022/01/11 13:22:08;;;;;;;15.63;14.07;;;;;;;;;;4967212;28;20054;-69
2022/01/11 13:24:36;;;;;;;14.73;13.65;;;;;;;;;;4973485;28;20134;-69
2022/01/11 13:27:11;;;;;;;15.77;14.57;;;;;;;;;;4964138;28;20423;-69
2022/01/11 13:29:37;;;;;;;15.65;14.45;;;;;;;;;;4969104;28;20667;-68
2022/01/11 13:32:03;;;;;;;15.60;14.23;;;;;;;;;;4966857;28;20058;-68
2022/01/11 13:34:31;;;;;;;15.25;14.15;;;;;;;;;;4968064;28;20049;-68
2022/01/11 13:36:57;;;;;;;16.80;15.23;;;;;;;;;;4972457;28;20047;-68
2022/01/11 13:39:29;;;;;;;16.05;14.73;;;;;;;;;;4970002;28;20997;-68
2022/01/11 13:41:57;;;;;;;15.82;14.52;;;;;;;;;;4980056;28;20052;-68
2022/01/11 13:44:25;;;;;;;16.17;14.70;;;;;;;;;;4987853;28;20084;-68
2022/01/11 13:47:00;;;;;;;15.20;13.90;;;;;;;;;;4986770;28;20038;-66
2022/01/11 13:49:25;;;;;;;15.90;14.60;;;;;;;;;;4987024;28;20576;-67
2022/01/11 13:52:00;;;;;;;15.73;14.45;;;;;;;;;;5014897;28;20057;-66
2022/01/11 13:54:38;;;;;;;16.15;14.82;;;;;;;;;;5029319;28;20076;-67
2022/01/11 13:57:06;;;;;;;18.00;16.40;;;;;;;;;;5034119;28;20116;-67
2022/01/11 13:59:33;;;;;;;17.05;15.45;;;;;;;;;;5012291;28;20045;-67
2022/01/11 14:02:25;;;;;;;16.83;15.45;;;;;;;;;;5025369;28;20225;-66
2022/01/11 14:04:59;;;;;;;15.55;14.35;;;;;;;;;;5018252;28;20689;-67
2022/01/11 14:07:30;;;;;;;15.68;14.32;;;;;;;;;;5028816;28;20828;-68
2022/01/11 14:10:02;;;;;;;15.52;14.00;;;;;;;;;;5032134;28;20104;-68
2022/01/11 14:12:30;;;;;;;15.75;14.45;;;;;;;;;;5031018;28;20029;-68
2022/01/11 14:15:06;;;;;;;15.77;14.48;;;;;;;;;;5031586;28;20179;-67
2022/01/11 14:17:35;;;;;;;16.02;14.55;;;;;;;;;;5026972;28;20052;-68
2022/01/11 14:20:05;;;;;;;15.40;14.20;;;;;;;;;;5011309;28;20033;-68
2022/01/11 14:22:38;;;;;;;16.27;14.60;;;;;;;;;;5028401;28;20037;-68
2022/01/11 14:25:05;;;;;;;15.60;14.32;;;;;;;;;;5020579;28;20830;-67
2022/01/11 14:27:33;;;;;;;15.07;14.00;;;;;;;;;;5030839;28;20033;-68
2022/01/11 14:30:14;;;;;;;16.38;14.85;;;;;;;;;;5029203;28;20091;-68
2022/01/11 14:32:51;;;;;;;15.55;14.02;;;;;;;;;;5028927;28;20045;-67